createdAt,value
2017-11-14T00:01:00.281Z,9.18
2017-11-14T00:03:27.836Z,9.38
2017-11-14T00:05:55.376Z,8.25
2017-11-14T00:08:23.227Z,9.52
2017-11-14T00:10:50.713Z,8.10
2017-11-14T00:13:18.195Z,10.35
2017-11-14T00:15:45.676Z,8.00
2017-11-14T00:18:13.188Z,7.40
2017-11-14T00:20:41.146Z,7.95
2017-11-14T00:23:08.646Z,7.75
2017-11-14T00:25:36.122Z,7.28
2017-11-14T00:28:03.580Z,6.30
2017-11-14T00:30:31.043Z,7.18
2017-11-14T00:32:58.494Z,9.88
2017-11-14T00:35:25.957Z,9.18
2017-11-14T00:37:53.416Z,6.80
2017-11-14T00:40:26.053Z,7.97
2017-11-14T00:42:53.544Z,6.45
2017-11-14T00:45:21.004Z,8.48
2017-11-14T00:47:48.459Z,7.43
2017-11-14T00:50:15.918Z,6.43
2017-11-14T00:52:43.376Z,6.55
2017-11-14T00:55:10.853Z,6.20
2017-11-14T00:57:39.072Z,11.50
2017-11-14T01:00:06.520Z,5.65
2017-11-14T01:02:33.970Z,6.12
2017-11-14T01:05:01.423Z,5.75
2017-11-14T01:07:28.876Z,5.75
2017-11-14T01:09:56.319Z,7.30
2017-11-14T01:12:23.809Z,6.95
2017-11-14T01:14:51.256Z,8.55
2017-11-14T01:17:18.707Z,9.02
2017-11-14T01:19:46.209Z,5.68
2017-11-14T01:22:13.660Z,6.85
2017-11-14T01:24:41.133Z,10.30
2017-11-14T01:27:08.583Z,7.72
2017-11-14T01:29:36.058Z,9.13
2017-11-14T01:32:03.523Z,8.98
2017-11-14T01:34:31.738Z,5.75
2017-11-14T01:36:59.190Z,5.78
2017-11-14T01:39:26.643Z,5.35
2017-11-14T01:41:54.100Z,5.00
2017-11-14T01:44:21.587Z,6.43
2017-11-14T01:46:49.049Z,4.85
2017-11-14T01:49:16.523Z,4.93
2017-11-14T01:51:43.981Z,5.05
2017-11-14T01:54:12.236Z,6.35
2017-11-14T01:56:39.691Z,4.43
2017-11-14T01:59:07.153Z,4.75
2017-11-14T02:01:34.611Z,5.10
2017-11-14T02:04:02.083Z,5.62
2017-11-14T02:06:30.327Z,4.82
2017-11-14T02:08:57.816Z,5.45
2017-11-14T02:11:25.274Z,5.65
2017-11-14T02:13:53.515Z,5.65
2017-11-14T02:16:20.978Z,4.80
2017-11-14T02:18:48.435Z,6.82
2017-11-14T02:21:15.935Z,6.45
2017-11-14T02:23:44.174Z,4.80
2017-11-14T02:26:11.675Z,5.12
2017-11-14T02:28:39.120Z,5.12
2017-11-14T02:31:06.617Z,5.62
2017-11-14T02:33:34.077Z,5.80
2017-11-14T02:36:01.543Z,6.97
2017-11-14T02:38:29.000Z,8.05
2017-11-14T02:40:56.465Z,5.68
2017-11-14T02:43:23.953Z,6.03
2017-11-14T02:45:51.417Z,8.40
2017-11-14T02:48:18.876Z,6.90
2017-11-14T02:50:46.333Z,6.85
2017-11-14T02:53:14.556Z,7.15
2017-11-14T02:55:42.002Z,7.00
2017-11-14T02:58:09.471Z,6.70
2017-11-14T03:00:36.938Z,7.93
2017-11-14T03:03:04.401Z,6.75
2017-11-14T03:05:31.880Z,7.10
2017-11-14T03:07:59.347Z,7.97
2017-11-14T03:10:26.811Z,7.47
2017-11-14T03:12:54.301Z,8.15
2017-11-14T03:15:21.763Z,8.40
2017-11-14T03:17:49.244Z,11.07
2017-11-14T03:20:16.724Z,7.70
2017-11-14T03:22:44.187Z,9.82
2017-11-14T03:25:11.642Z,8.57
2017-11-14T03:27:39.113Z,9.73
2017-11-14T03:30:06.578Z,13.52
2017-11-14T03:32:34.047Z,10.13
2017-11-14T03:35:01.509Z,12.25
2017-11-14T03:37:28.972Z,9.77
2017-11-14T03:39:56.438Z,10.95
2017-11-14T03:42:23.895Z,11.57
2017-11-14T03:44:51.360Z,8.05
2017-11-14T03:47:18.823Z,9.00
2017-11-14T03:49:46.267Z,10.93
2017-11-14T03:52:13.787Z,9.02
2017-11-14T03:54:41.248Z,10.50
2017-11-14T03:57:08.714Z,8.68
2017-11-14T03:59:36.171Z,8.30
2017-11-14T04:02:03.661Z,8.35
2017-11-14T04:04:31.117Z,10.93
2017-11-14T04:06:58.585Z,7.97
2017-11-14T04:09:26.070Z,9.75
2017-11-14T04:11:53.540Z,9.60
2017-11-14T04:14:21.782Z,9.65
2017-11-14T04:16:49.269Z,7.40
2017-11-14T04:19:16.729Z,8.73
2017-11-14T04:21:44.195Z,8.57
2017-11-14T04:24:11.682Z,9.13
2017-11-14T04:26:39.149Z,8.07
2017-11-14T04:29:06.607Z,9.88
2017-11-14T04:31:34.078Z,7.62
2017-11-14T04:34:01.571Z,10.10
2017-11-14T04:36:29.032Z,10.57
2017-11-14T04:38:56.576Z,8.30
2017-11-14T04:41:24.059Z,7.85
2017-11-14T04:43:51.519Z,9.15
2017-11-14T04:46:19.015Z,10.05
2017-11-14T04:48:46.504Z,9.77
2017-11-14T04:51:14.799Z,8.90
2017-11-14T04:53:42.365Z,10.27
2017-11-14T04:56:09.885Z,8.98
2017-11-14T04:58:37.378Z,8.98
2017-11-14T05:01:04.821Z,9.80
2017-11-14T05:03:32.385Z,8.18
2017-11-14T05:05:59.939Z,12.50
2017-11-14T05:08:27.460Z,10.02
2017-11-14T05:10:55.176Z,10.75
2017-11-14T05:13:23.178Z,9.63
2017-11-14T05:15:50.689Z,9.15
2017-11-14T05:18:18.162Z,8.77
2017-11-14T05:20:45.862Z,8.52
2017-11-14T05:23:13.941Z,10.00
2017-11-14T05:25:41.433Z,11.60
2017-11-14T05:28:09.667Z,8.25
2017-11-14T05:30:37.160Z,8.73
2017-11-14T05:33:05.341Z,8.38
2017-11-14T05:35:32.841Z,7.70
2017-11-14T05:38:00.324Z,11.00
2017-11-14T05:40:27.812Z,10.55
2017-11-14T05:42:55.320Z,8.05
2017-11-14T05:45:22.991Z,10.23
2017-11-14T05:47:50.479Z,9.70
2017-11-14T05:50:17.958Z,9.10
2017-11-14T05:52:46.176Z,9.25
2017-11-14T05:55:13.708Z,13.70
2017-11-14T05:57:41.250Z,8.60
2017-11-14T06:00:08.712Z,10.80
2017-11-14T06:02:36.276Z,10.65
2017-11-14T06:05:03.795Z,17.00
2017-11-14T06:07:31.295Z,12.82
2017-11-14T06:09:58.821Z,10.63
2017-11-14T06:12:26.284Z,12.00
2017-11-14T06:14:54.565Z,8.65
2017-11-14T06:17:22.837Z,11.82
2017-11-14T06:19:50.330Z,11.32
2017-11-14T06:22:18.728Z,14.43
2017-11-14T06:24:46.219Z,11.82
2017-11-14T06:27:13.703Z,10.68
2017-11-14T06:29:41.168Z,10.75
2017-11-14T06:32:08.831Z,14.68
2017-11-14T06:34:36.375Z,11.70
2017-11-14T06:37:03.893Z,18.58
2017-11-14T06:39:31.799Z,14.73
2017-11-14T06:41:59.323Z,13.55
2017-11-14T06:44:28.037Z,8.90
2017-11-14T06:46:55.585Z,14.07
2017-11-14T06:49:23.096Z,13.60
2017-11-14T06:51:50.588Z,12.18
2017-11-14T06:54:18.055Z,11.82
2017-11-14T06:56:45.532Z,9.50
2017-11-14T06:59:12.991Z,9.07
2017-11-14T07:01:40.452Z,13.18
2017-11-14T07:04:07.904Z,10.75
2017-11-14T07:06:35.360Z,12.90
2017-11-14T07:09:02.819Z,7.12
2017-11-14T07:11:30.307Z,13.23
2017-11-14T07:13:57.834Z,9.40
2017-11-14T07:16:25.348Z,11.85
2017-11-14T07:18:52.819Z,10.48
2017-11-14T07:21:20.315Z,11.77
2017-11-14T07:23:47.774Z,7.87
2017-11-14T07:26:15.319Z,9.25
2017-11-14T07:28:42.822Z,11.02
2017-11-14T07:31:10.289Z,11.60
2017-11-14T07:33:37.800Z,17.83
2017-11-14T07:36:05.316Z,11.35
2017-11-14T07:38:32.785Z,8.35
2017-11-14T07:41:00.358Z,11.55
2017-11-14T07:43:27.890Z,13.93
2017-11-14T07:45:55.751Z,8.15
2017-11-14T07:48:23.405Z,9.95
2017-11-14T07:50:50.911Z,7.55
2017-11-14T07:53:18.456Z,16.25
2017-11-14T07:55:45.947Z,8.15
2017-11-14T07:58:13.478Z,11.43
2017-11-14T08:00:41.010Z,6.15
2017-11-14T08:03:08.492Z,16.15
2017-11-14T08:05:35.975Z,9.27
2017-11-14T08:08:03.435Z,9.27
2017-11-14T08:10:30.907Z,6.37
2017-11-14T08:12:58.371Z,7.28
2017-11-14T08:15:25.825Z,6.95
2017-11-14T08:17:53.344Z,9.07
2017-11-14T08:20:20.775Z,8.13
2017-11-14T08:22:48.252Z,6.65
2017-11-14T08:25:16.545Z,3.85
2017-11-14T08:27:44.003Z,6.18
2017-11-14T08:30:11.460Z,5.75
2017-11-14T08:32:39.292Z,6.87
2017-11-14T08:35:06.759Z,8.70
2017-11-14T08:37:34.223Z,6.15
2017-11-14T08:40:02.450Z,14.05
2017-11-14T08:42:29.939Z,6.47
2017-11-14T08:44:57.431Z,4.53
2017-11-14T08:47:24.908Z,10.70
2017-11-14T08:49:52.388Z,6.87
2017-11-14T08:52:19.855Z,5.70
2017-11-14T08:54:47.321Z,10.50
2017-11-14T08:57:15.368Z,10.52
2017-11-14T08:59:42.846Z,4.75
2017-11-14T09:02:10.328Z,4.35
2017-11-14T09:04:37.792Z,7.70
2017-11-14T09:07:06.016Z,7.80
2017-11-14T09:09:33.526Z,3.67
2017-11-14T09:12:00.975Z,7.07
2017-11-14T09:14:28.430Z,9.60
2017-11-14T09:16:55.890Z,5.15
2017-11-14T09:19:23.363Z,7.87
2017-11-14T09:21:50.826Z,9.85
2017-11-14T09:24:18.310Z,5.03
2017-11-14T09:26:45.758Z,6.72
2017-11-14T09:29:13.249Z,8.88
2017-11-14T09:31:40.719Z,8.35
2017-11-14T09:34:08.179Z,7.97
2017-11-14T09:36:35.676Z,8.25
2017-11-14T09:39:03.160Z,4.10
2017-11-14T09:41:30.736Z,7.03
2017-11-14T09:43:58.964Z,7.70
2017-11-14T09:46:26.420Z,5.32
2017-11-14T09:48:53.909Z,8.82
2017-11-14T09:51:21.397Z,9.07
2017-11-14T09:53:48.882Z,9.95
2017-11-14T09:56:16.351Z,7.00
2017-11-14T09:58:43.809Z,6.28
2017-11-14T10:01:11.292Z,10.23
2017-11-14T10:03:38.758Z,8.30
2017-11-14T10:06:06.208Z,4.87
2017-11-14T10:08:33.697Z,8.75
2017-11-14T10:11:01.193Z,7.78
2017-11-14T10:13:28.659Z,8.73
2017-11-14T10:15:56.123Z,5.65
2017-11-14T10:18:23.580Z,6.85
2017-11-14T10:20:51.051Z,4.55
2017-11-14T10:23:18.536Z,9.95
2017-11-14T10:25:45.999Z,17.15
2017-11-14T10:28:13.503Z,9.77
2017-11-14T10:30:40.967Z,7.80
2017-11-14T10:33:08.470Z,7.10
2017-11-14T10:35:35.974Z,12.10
2017-11-14T10:38:03.510Z,8.40
2017-11-14T10:40:31.001Z,11.15
2017-11-14T10:42:58.448Z,7.28
2017-11-14T10:45:25.917Z,9.13
2017-11-14T10:47:53.385Z,11.35
2017-11-14T10:50:20.910Z,3.95
2017-11-14T10:52:48.388Z,8.45
2017-11-14T10:55:15.871Z,11.40
2017-11-14T10:57:43.396Z,10.48
2017-11-14T11:00:10.875Z,8.20
2017-11-14T11:02:38.351Z,12.30
2017-11-14T11:05:05.840Z,7.30
2017-11-14T11:07:33.319Z,8.55
2017-11-14T11:10:00.840Z,8.55
2017-11-14T11:12:29.068Z,4.78
2017-11-14T11:14:56.528Z,10.90
2017-11-14T11:17:24.030Z,8.10
2017-11-14T11:19:51.540Z,5.82
2017-11-14T11:22:19.055Z,8.77
2017-11-14T11:24:46.578Z,9.07
2017-11-14T11:27:14.048Z,14.45
2017-11-14T11:29:41.516Z,14.30
2017-11-14T11:32:08.998Z,17.50
2017-11-14T11:34:36.714Z,8.40
2017-11-14T11:37:04.179Z,8.65
2017-11-14T11:39:31.674Z,6.15
2017-11-14T11:41:59.233Z,5.65
2017-11-14T11:44:27.027Z,10.52
2017-11-14T11:46:54.504Z,9.63
2017-11-14T11:49:22.004Z,7.50
2017-11-14T11:51:50.242Z,6.30
2017-11-14T11:54:17.716Z,11.57
2017-11-14T11:56:45.976Z,10.88
2017-11-14T11:59:13.448Z,10.13
2017-11-14T12:01:41.687Z,11.57
2017-11-14T12:04:09.165Z,9.27
2017-11-14T12:06:36.635Z,16.52
2017-11-14T12:09:04.121Z,14.23
2017-11-14T12:11:31.575Z,8.05
2017-11-14T12:13:59.039Z,15.55
2017-11-14T12:16:26.494Z,7.65
2017-11-14T12:18:53.969Z,10.35
2017-11-14T12:21:21.479Z,11.70
2017-11-14T12:23:48.985Z,16.75
2017-11-14T12:26:16.461Z,11.48
2017-11-14T12:28:43.980Z,13.73
2017-11-14T12:31:11.462Z,10.45
2017-11-14T12:33:38.974Z,11.35
2017-11-14T12:36:07.220Z,13.38
2017-11-14T12:38:34.675Z,12.20
2017-11-14T12:41:02.145Z,9.68
2017-11-14T12:43:29.625Z,13.13
2017-11-14T12:45:57.082Z,11.73
2017-11-14T12:48:25.331Z,13.90
2017-11-14T12:50:52.811Z,14.63
2017-11-14T12:53:20.283Z,10.70
2017-11-14T12:55:48.499Z,12.93
2017-11-14T12:58:15.966Z,12.90
2017-11-14T13:00:43.419Z,13.13
2017-11-14T13:03:10.885Z,12.35
2017-11-14T13:05:38.409Z,12.90
2017-11-14T13:08:05.865Z,15.32
2017-11-14T13:10:33.320Z,15.50
2017-11-14T13:13:00.772Z,13.38
2017-11-14T13:15:28.230Z,12.80
2017-11-14T13:17:55.723Z,12.25
2017-11-14T13:20:23.202Z,15.63
2017-11-14T13:22:50.658Z,13.80
2017-11-14T13:25:18.133Z,14.25
2017-11-14T13:27:46.377Z,15.07
2017-11-14T13:30:13.871Z,12.65
2017-11-14T13:32:41.412Z,16.80
2017-11-14T13:35:08.891Z,12.27
2017-11-14T13:37:36.354Z,12.73
2017-11-14T13:40:03.820Z,19.02
2017-11-14T13:42:31.279Z,12.68
2017-11-14T13:44:58.741Z,15.50
2017-11-14T13:47:26.213Z,14.32
2017-11-14T13:49:53.693Z,14.52
2017-11-14T13:52:21.157Z,14.30
2017-11-14T13:54:48.615Z,14.85
2017-11-14T13:57:16.075Z,15.57
2017-11-14T13:59:43.533Z,15.05
2017-11-14T14:02:11.911Z,15.68
2017-11-14T14:04:39.378Z,16.37
2017-11-14T14:07:06.853Z,15.45
2017-11-14T14:09:34.330Z,12.55
2017-11-14T14:12:01.805Z,14.55
2017-11-14T14:14:29.278Z,17.17
2017-11-14T14:16:56.754Z,14.98
2017-11-14T14:19:24.216Z,15.40
2017-11-14T14:21:51.684Z,13.73
2017-11-14T14:24:19.933Z,14.00
2017-11-14T14:26:47.399Z,17.30
2017-11-14T14:29:14.880Z,15.55
2017-11-14T14:31:43.129Z,15.75
2017-11-14T14:34:10.621Z,15.52
2017-11-14T14:36:38.821Z,14.68
2017-11-14T14:39:06.304Z,16.62
2017-11-14T14:41:33.808Z,17.58
2017-11-14T14:44:01.315Z,16.17
2017-11-14T14:46:28.800Z,19.05
2017-11-14T14:48:56.258Z,16.95
2017-11-14T14:51:23.731Z,17.05
2017-11-14T14:53:51.980Z,16.92
2017-11-14T14:56:19.456Z,19.87
2017-11-14T14:58:46.924Z,17.92
2017-11-14T15:01:14.376Z,17.33
2017-11-14T15:03:42.636Z,19.02
2017-11-14T15:06:10.115Z,17.20
2017-11-14T15:08:37.572Z,18.48
2017-11-14T15:11:05.036Z,19.90
2017-11-14T15:13:32.504Z,16.77
2017-11-14T15:15:59.960Z,16.85
2017-11-14T15:18:27.568Z,18.87
2017-11-14T15:20:56.128Z,19.23
2017-11-14T15:23:23.620Z,19.25
2017-11-14T15:25:51.081Z,17.55
2017-11-14T15:28:19.310Z,17.02
2017-11-14T15:30:46.845Z,19.27
2017-11-14T15:33:14.321Z,20.30
2017-11-14T15:35:41.781Z,19.98
2017-11-14T15:38:09.256Z,18.65
2017-11-14T15:40:36.727Z,18.67
2017-11-14T15:43:04.210Z,20.08
2017-11-14T15:45:32.452Z,19.20
2017-11-14T15:47:59.919Z,19.90
2017-11-14T15:50:27.405Z,20.75
2017-11-14T15:52:54.867Z,21.17
2017-11-14T15:55:22.329Z,21.90
2017-11-14T15:57:49.798Z,18.12
2017-11-14T16:00:17.277Z,21.23
2017-11-14T16:02:44.726Z,20.45
2017-11-14T16:05:12.199Z,19.35
2017-11-14T16:07:39.660Z,18.62
2017-11-14T16:10:07.112Z,23.00
2017-11-14T16:12:34.592Z,20.58
2017-11-14T16:15:02.064Z,22.87
2017-11-14T16:17:30.302Z,21.75
2017-11-14T16:19:57.768Z,22.15
2017-11-14T16:22:25.235Z,21.30
2017-11-14T16:24:52.708Z,23.87
2017-11-14T16:27:20.956Z,28.87
2017-11-14T16:29:48.429Z,23.25
2017-11-14T16:32:15.896Z,23.42
2017-11-14T16:34:44.122Z,23.55
2017-11-14T16:37:11.580Z,24.25
2017-11-14T16:39:39.069Z,24.30
2017-11-14T16:42:06.626Z,28.30
2017-11-14T16:44:34.144Z,26.98
2017-11-14T16:47:01.631Z,25.62
2017-11-14T16:49:29.127Z,26.42
2017-11-14T16:51:57.396Z,26.77
2017-11-14T16:54:25.644Z,27.15
2017-11-14T16:56:53.155Z,26.45
2017-11-14T16:59:20.681Z,25.25
2017-11-14T17:01:49.346Z,26.90
2017-11-14T17:04:17.196Z,24.87
2017-11-14T17:06:44.800Z,24.17
2017-11-14T17:09:12.483Z,23.52
2017-11-14T17:11:40.038Z,22.13
2017-11-14T17:14:07.581Z,24.45
2017-11-14T17:16:35.165Z,21.75
2017-11-14T17:19:02.763Z,25.17
2017-11-14T17:21:30.274Z,24.75
2017-11-14T17:23:57.990Z,28.67
2017-11-14T17:26:27.148Z,23.27
2017-11-14T17:28:54.679Z,25.58
2017-11-14T17:31:22.301Z,24.35
2017-11-14T17:33:50.697Z,24.02
2017-11-14T17:36:18.969Z,24.80
2017-11-14T17:38:57.286Z,23.52
2017-11-14T17:41:24.992Z,22.70
2017-11-14T17:43:52.505Z,24.52
2017-11-14T17:46:19.985Z,27.30
2017-11-14T17:48:47.547Z,25.90
2017-11-14T17:51:15.848Z,25.80
2017-11-14T17:53:43.360Z,24.20
2017-11-14T17:56:10.843Z,24.27
2017-11-14T17:58:38.342Z,28.62
2017-11-14T18:01:05.845Z,26.95
2017-11-14T18:03:34.420Z,25.20
2017-11-14T18:06:01.988Z,34.75
2017-11-14T18:08:30.308Z,25.40
2017-11-14T18:10:58.220Z,26.77
2017-11-14T18:13:33.995Z,27.30
2017-11-14T18:16:01.569Z,27.98
2017-11-14T18:18:29.137Z,27.17
2017-11-14T18:20:56.813Z,25.98
2017-11-14T18:23:24.372Z,28.17
2017-11-14T18:25:52.256Z,26.15
2017-11-14T18:28:20.552Z,27.62
2017-11-14T18:30:49.004Z,27.85
2017-11-14T18:33:16.503Z,28.45
2017-11-14T18:35:44.066Z,27.55
2017-11-14T18:38:11.530Z,30.05
2017-11-14T18:40:39.196Z,26.52
2017-11-14T18:43:06.784Z,26.85
2017-11-14T18:45:34.321Z,32.15
2017-11-14T18:48:03.255Z,30.00
2017-11-14T18:50:30.968Z,27.60
2017-11-14T18:52:58.528Z,29.30
2017-11-14T18:55:26.098Z,31.55
2017-11-14T18:57:53.733Z,29.42
2017-11-14T19:00:34.509Z,29.52
2017-11-14T19:03:02.648Z,33.80
2017-11-14T19:05:30.503Z,33.83
2017-11-14T19:07:59.600Z,30.45
2017-11-14T19:10:30.351Z,32.00
2017-11-14T19:13:07.353Z,32.35
2017-11-14T19:15:42.052Z,33.20
2017-11-14T19:18:42.785Z,31.80
2017-11-14T19:21:20.062Z,35.10
2017-11-14T19:23:51.376Z,30.65
2017-11-14T19:26:34.036Z,35.72
2017-11-14T19:29:01.585Z,30.88
2017-11-14T19:31:29.103Z,30.95
2017-11-14T19:33:56.656Z,40.38
2017-11-14T19:36:24.369Z,36.40
2017-11-14T19:38:51.878Z,35.28
2017-11-14T19:41:19.441Z,35.08
2017-11-14T19:43:46.988Z,37.92
2017-11-14T19:46:14.516Z,34.65
2017-11-14T19:48:42.001Z,36.17
2017-11-14T19:51:09.526Z,35.58
2017-11-14T19:53:37.029Z,36.20
2017-11-14T19:56:08.166Z,39.17
2017-11-14T19:58:35.789Z,37.88
2017-11-14T20:01:03.300Z,35.20
2017-11-14T20:03:30.834Z,37.33
2017-11-14T20:05:58.696Z,37.03
2017-11-14T20:08:26.306Z,34.40
2017-11-14T20:10:54.088Z,38.10
2017-11-14T20:13:21.699Z,33.22
2017-11-14T20:15:50.923Z,36.85
2017-11-14T20:18:19.771Z,43.03
2017-11-14T20:20:47.353Z,39.88
2017-11-14T20:23:14.848Z,39.38
2017-11-14T20:25:42.574Z,41.33
2017-11-14T20:28:10.301Z,39.95
2017-11-14T20:30:42.680Z,36.38
2017-11-14T20:33:10.293Z,32.15
2017-11-14T20:35:38.014Z,44.33
2017-11-14T20:38:05.592Z,35.00
2017-11-14T20:40:39.541Z,36.05
2017-11-14T20:45:57.259Z,35.95
2017-11-14T20:48:26.217Z,31.73
2017-11-14T20:50:55.291Z,38.58
2017-11-14T20:53:24.326Z,40.92
2017-11-14T20:58:55.861Z,36.70
2017-11-14T21:01:32.308Z,39.25
2017-11-14T21:04:01.672Z,39.88
2017-11-14T21:06:30.942Z,47.20
2017-11-14T21:09:08.932Z,43.47
2017-11-14T21:11:36.556Z,35.17
2017-11-14T21:14:05.413Z,38.08
2017-11-14T21:16:36.459Z,48.42
2017-11-14T21:19:05.111Z,44.47
2017-11-14T21:21:55.483Z,39.65
2017-11-14T21:24:23.526Z,42.45
2017-11-14T21:27:11.328Z,48.83
2017-11-14T21:29:47.351Z,42.22
2017-11-14T21:38:31.433Z,38.92
2017-11-14T21:41:00.657Z,36.25
2017-11-14T21:46:02.925Z,47.13
2017-11-14T21:48:32.401Z,44.00
2017-11-14T21:51:14.442Z,38.60
2017-11-14T21:53:42.113Z,41.58
2017-11-14T21:56:09.639Z,39.75
2017-11-14T21:58:37.133Z,47.83
2017-11-14T22:01:04.667Z,42.30
2017-11-14T22:03:32.162Z,41.22
2017-11-14T22:06:00.002Z,42.35
2017-11-14T22:08:27.552Z,45.88
2017-11-14T22:10:55.561Z,40.08
2017-11-14T22:13:26.417Z,46.13
2017-11-14T22:15:53.989Z,42.88
2017-11-14T22:18:21.570Z,42.45
2017-11-14T22:20:49.201Z,42.35
2017-11-14T22:23:16.760Z,45.50
2017-11-14T22:25:44.350Z,40.72
2017-11-14T22:28:11.849Z,42.75
2017-11-14T22:30:39.353Z,44.03
2017-11-14T22:33:06.865Z,44.65
2017-11-14T22:35:34.428Z,49.47
2017-11-14T22:38:01.970Z,48.95
2017-11-14T22:40:30.265Z,45.12
2017-11-14T22:42:57.760Z,45.47
2017-11-14T22:45:25.275Z,46.37
2017-11-14T22:47:52.755Z,49.85
2017-11-14T22:50:20.275Z,46.78
2017-11-14T22:52:48.278Z,45.42
2017-11-14T22:55:16.460Z,43.42
2017-11-14T22:57:44.023Z,38.80
2017-11-14T23:00:11.561Z,45.22
2017-11-14T23:02:39.085Z,46.55
2017-11-14T23:05:06.564Z,44.17
2017-11-14T23:07:34.308Z,47.65
2017-11-14T23:10:02.256Z,51.72
2017-11-14T23:12:30.482Z,51.58
2017-11-14T23:14:58.004Z,49.75
2017-11-14T23:17:25.494Z,50.65
2017-11-14T23:19:52.993Z,46.47
2017-11-14T23:22:20.787Z,46.10
2017-11-14T23:24:48.623Z,49.67
2017-11-14T23:27:16.163Z,49.95
2017-11-14T23:29:43.702Z,48.63
2017-11-14T23:32:11.237Z,55.10
2017-11-14T23:34:38.758Z,49.95
2017-11-14T23:37:06.240Z,49.63
2017-11-14T23:39:33.770Z,51.60
2017-11-14T23:42:01.333Z,50.75
2017-11-14T23:44:28.938Z,49.72
2017-11-14T23:46:56.506Z,50.33
2017-11-14T23:49:24.045Z,49.15
2017-11-14T23:51:52.376Z,49.70
2017-11-14T23:54:19.923Z,52.25
2017-11-14T23:56:47.405Z,48.25
2017-11-14T23:59:14.910Z,45.45
